sensor_id;sensor_type;location;lat;lon;timestamp;pressure;altitude;pressure_sealevel;temperature;humidity
19845;BME280;10083;51.038;7.012;2023-08-08T11:18:06;104179.31;;;20.15;nan
19845;BME280;10083;51.038;7.012;2023-08-08T11:21:15;104073.41;;;19.92;nan
19845;BME280;10083;51.038;7.012;2023-08-08T11:24:22;104017.31;;;19.76;nan
19845;BME280;10083;51.038;7.012;2023-08-08T11:28:00;104003.06;;;19.45;nan
19845;BME280;10083;51.038;7.012;2023-08-08T11:31:21;103967.81;;;19.34;nan
19845;BME280;10083;51.038;7.012;2023-08-08T11:37:48;103964.91;;;19.59;nan
19845;BME280;10083;51.038;7.012;2023-08-08T11:41:34;103933.13;;;19.65;nan
19845;BME280;10083;51.038;7.012;2023-08-08T11:50:55;103911.81;;;20.04;nan
19845;BME280;10083;51.038;7.012;2023-08-08T11:52:45;103924.53;;;20.03;nan
19845;BME280;10083;51.038;7.012;2023-08-08T11:56:16;103917.41;;;19.92;nan
19845;BME280;10083;51.038;7.012;2023-08-08T12:03:20;103928.19;;;20.01;nan
19845;BME280;10083;51.038;7.012;2023-08-08T12:07:37;103931.97;;;19.86;nan
19845;BME280;10083;51.038;7.012;2023-08-08T12:21:33;103935.69;;;19.79;nan
19845;BME280;10083;51.038;7.012;2023-08-08T12:25:02;103928.97;;;20.10;nan
19845;BME280;10083;51.038;7.012;2023-08-08T12:28:55;103942.66;;;20.04;nan
19845;BME280;10083;51.038;7.012;2023-08-08T12:32:08;103947.34;;;19.88;nan
19845;BME280;10083;51.038;7.012;2023-08-08T12:35:37;103942.81;;;19.89;nan
19845;BME280;10083;51.038;7.012;2023-08-08T12:38:31;103932.44;;;19.37;nan
19845;BME280;10083;51.038;7.012;2023-08-08T12:41:55;103960.88;;;18.94;nan
19845;BME280;10083;51.038;7.012;2023-08-08T12:49:02;104143.00;;;18.30;nan
19845;BME280;10083;51.038;7.012;2023-08-08T12:52:25;104261.50;;;18.28;nan
19845;BME280;10083;51.038;7.012;2023-08-08T12:55:11;104364.59;;;18.08;nan
19845;BME280;10083;51.038;7.012;2023-08-08T13:02:05;104554.44;;;17.99;nan
19845;BME280;10083;51.038;7.012;2023-08-08T13:05:20;104668.41;;;18.04;nan
19845;BME280;10083;51.038;7.012;2023-08-08T13:08:41;104815.94;;;18.17;nan
19845;BME280;10083;51.038;7.012;2023-08-08T13:15:54;105222.56;;;18.46;nan
19845;BME280;10083;51.038;7.012;2023-08-08T13:18:47;105309.47;;;18.46;nan
19845;BME280;10083;51.038;7.012;2023-08-08T13:21:39;105388.13;;;18.93;nan
19845;BME280;10083;51.038;7.012;2023-08-08T13:46:25;103853.00;;;21.11;nan
19845;BME280;10083;51.038;7.012;2023-08-08T13:57:35;103854.88;;;20.56;nan
19845;BME280;10083;51.038;7.012;2023-08-08T14:00:39;103872.53;;;20.87;nan
19845;BME280;10083;51.038;7.012;2023-08-08T14:03:56;103859.38;;;21.10;nan
19845;BME280;10083;51.038;7.012;2023-08-08T14:07:55;103856.28;;;21.33;nan
19845;BME280;10083;51.038;7.012;2023-08-08T14:12:24;103910.28;;;21.14;nan
19845;BME280;10083;51.038;7.012;2023-08-08T14:14:02;103852.72;;;21.30;nan
19845;BME280;10083;51.038;7.012;2023-08-08T14:17:56;103867.66;;;22.02;nan
19845;BME280;10083;51.038;7.012;2023-08-08T14:24:49;103834.22;;;21.47;nan
19845;BME280;10083;51.038;7.012;2023-08-08T14:27:27;103843.06;;;22.02;nan
19845;BME280;10083;51.038;7.012;2023-08-08T14:30:33;103823.16;;;22.37;nan
19845;BME280;10083;51.038;7.012;2023-08-08T14:33:22;103772.41;;;23.01;nan
19845;BME280;10083;51.038;7.012;2023-08-08T14:36:37;103435.72;;;24.17;nan
19845;BME280;10083;51.038;7.012;2023-08-08T14:39:35;103402.94;;;23.89;nan
19845;BME280;10083;51.038;7.012;2023-08-08T14:53:33;103604.34;;;22.16;nan
19845;BME280;10083;51.038;7.012;2023-08-08T14:56:59;103606.78;;;21.89;nan
19845;BME280;10083;51.038;7.012;2023-08-08T14:59:37;103470.59;;;24.83;nan
19845;BME280;10083;51.038;7.012;2023-08-08T15:02:48;103286.44;;;23.06;nan
19845;BME280;10083;51.038;7.012;2023-08-08T15:05:45;103356.09;;;22.39;nan
19845;BME280;10083;51.038;7.012;2023-08-08T15:12:35;103413.59;;;21.70;nan
19845;BME280;10083;51.038;7.012;2023-08-08T15:27:24;102918.91;;;23.13;nan
19845;BME280;10083;51.038;7.012;2023-08-08T15:44:34;102781.72;;;23.24;nan
19845;BME280;10083;51.038;7.012;2023-08-08T16:25:51;102848.34;;;22.09;nan
19845;BME280;10083;51.038;7.012;2023-08-08T17:06:01;102946.41;;;21.09;nan
19845;BME280;10083;51.038;7.012;2023-08-08T17:16:24;103001.63;;;21.15;nan
19845;BME280;10083;51.038;7.012;2023-08-08T17:30:59;102997.84;;;21.19;nan
19845;BME280;10083;51.038;7.012;2023-08-08T17:35:46;103017.53;;;21.00;nan
19845;BME280;10083;51.038;7.012;2023-08-08T17:38:27;103001.94;;;21.34;nan
19845;BME280;10083;51.038;7.012;2023-08-08T17:40:57;103000.97;;;21.06;nan
19845;BME280;10083;51.038;7.012;2023-08-08T17:44:36;103007.22;;;20.80;nan
19845;BME280;10083;51.038;7.012;2023-08-08T17:47:38;102996.53;;;20.74;nan
19845;BME280;10083;51.038;7.012;2023-08-08T17:51:02;103001.22;;;20.69;nan
19845;BME280;10083;51.038;7.012;2023-08-08T17:57:17;102988.50;;;20.69;nan
19845;BME280;10083;51.038;7.012;2023-08-08T18:00:10;102999.03;;;20.51;nan
19845;BME280;10083;51.038;7.012;2023-08-08T18:06:15;102989.81;;;20.55;nan
19845;BME280;10083;51.038;7.012;2023-08-08T18:09:24;102961.41;;;20.65;nan
19845;BME280;10083;51.038;7.012;2023-08-08T18:12:41;102981.00;;;20.47;nan
19845;BME280;10083;51.038;7.012;2023-08-08T18:15:58;102948.91;;;20.58;nan
19845;BME280;10083;51.038;7.012;2023-08-08T18:18:44;102931.72;;;20.56;nan
19845;BME280;10083;51.038;7.012;2023-08-08T18:22:07;102927.13;;;20.58;nan
19845;BME280;10083;51.038;7.012;2023-08-08T18:25:24;102934.44;;;20.56;nan
19845;BME280;10083;51.038;7.012;2023-08-08T18:31:39;102902.03;;;20.47;nan
19845;BME280;10083;51.038;7.012;2023-08-08T18:34:50;102896.69;;;20.44;nan
19845;BME280;10083;51.038;7.012;2023-08-08T18:44:34;102883.41;;;20.33;nan
19845;BME280;10083;51.038;7.012;2023-08-08T18:47:28;102867.06;;;20.33;nan
19845;BME280;10083;51.038;7.012;2023-08-08T18:50:48;102855.59;;;20.53;nan
19845;BME280;10083;51.038;7.012;2023-08-08T18:56:56;102855.94;;;20.41;nan
19845;BME280;10083;51.038;7.012;2023-08-08T19:03:06;102869.25;;;20.19;nan
19845;BME280;10083;51.038;7.012;2023-08-08T19:06:31;102877.84;;;20.05;nan
19845;BME280;10083;51.038;7.012;2023-08-08T19:12:45;102893.97;;;20.11;nan
19845;BME280;10083;51.038;7.012;2023-08-08T19:15:49;102906.16;;;19.98;nan
19845;BME280;10083;51.038;7.012;2023-08-08T19:26:22;102936.94;;;20.00;nan
19845;BME280;10083;51.038;7.012;2023-08-08T19:30:14;102930.47;;;20.04;nan
19845;BME280;10083;51.038;7.012;2023-08-08T19:32:55;102932.44;;;19.99;nan
19845;BME280;10083;51.038;7.012;2023-08-08T19:38:08;102938.63;;;20.04;nan
19845;BME280;10083;51.038;7.012;2023-08-08T19:39:26;102958.03;;;19.92;nan
19845;BME280;10083;51.038;7.012;2023-08-08T19:46:12;102959.53;;;19.70;nan
19845;BME280;10083;51.038;7.012;2023-08-08T19:49:12;102979.69;;;19.95;nan
19845;BME280;10083;51.038;7.012;2023-08-08T19:52:02;103004.19;;;19.58;nan
19845;BME280;10083;51.038;7.012;2023-08-08T19:58:43;103135.59;;;19.16;nan
19845;BME280;10083;51.038;7.012;2023-08-08T20:01:43;103206.69;;;18.93;nan
19845;BME280;10083;51.038;7.012;2023-08-08T20:08:58;103291.16;;;18.76;nan
19845;BME280;10083;51.038;7.012;2023-08-08T20:15:59;103458.19;;;18.39;nan
19845;BME280;10083;51.038;7.012;2023-08-08T20:42:18;104333.88;;;18.31;nan
19845;BME280;10083;51.038;7.012;2023-08-08T20:53:32;105134.34;;;18.17;nan
19845;BME280;10083;51.038;7.012;2023-08-08T20:56:22;105492.44;;;18.10;nan
19845;BME280;10083;51.038;7.012;2023-08-08T20:59:15;105833.09;;;17.95;nan
19845;BME280;10083;51.038;7.012;2023-08-08T21:02:06;106190.56;;;18.01;nan
19845;BME280;10083;51.038;7.012;2023-08-08T21:04:49;106569.59;;;18.00;nan
19845;BME280;10083;51.038;7.012;2023-08-08T21:07:54;106964.22;;;18.04;nan
19845;BME280;10083;51.038;7.012;2023-08-08T21:10:30;107409.88;;;17.61;nan
19845;BME280;10083;51.038;7.012;2023-08-08T21:13:25;108015.59;;;17.87;nan
19845;BME280;10083;51.038;7.012;2023-08-08T21:17:02;108560.06;;;17.83;nan
19845;BME280;10083;51.038;7.012;2023-08-08T21:19:36;109038.91;;;17.74;nan
19845;BME280;10083;51.038;7.012;2023-08-08T21:22:09;109628.94;;;17.84;nan
19845;BME280;10083;51.038;7.012;2023-08-08T21:25:04;110337.84;;;17.94;nan
19845;BME280;10083;51.038;7.012;2023-08-08T21:27:46;110862.81;;;18.00;nan
19845;BME280;10083;51.038;7.012;2023-08-08T21:30:40;111313.75;;;17.92;nan
19845;BME280;10083;51.038;7.012;2023-08-08T21:33:55;111874.03;;;17.89;nan
19845;BME280;10083;51.038;7.012;2023-08-08T21:40:09;113072.78;;;17.54;nan
19845;BME280;10083;51.038;7.012;2023-08-08T21:44:01;114278.91;;;17.81;nan
19845;BME280;10083;51.038;7.012;2023-08-08T21:50:12;116052.75;;;18.00;nan
19845;BME280;10083;51.038;7.012;2023-08-08T21:53:03;116592.50;;;17.97;nan
19845;BME280;10083;51.038;7.012;2023-08-08T21:58:49;117895.91;;;17.69;nan
19845;BME280;10083;51.038;7.012;2023-08-08T22:01:37;118670.81;;;17.90;nan
19845;BME280;10083;51.038;7.012;2023-08-08T22:04:14;120641.84;;;18.07;nan
19845;BME280;10083;51.038;7.012;2023-08-08T22:07:11;122331.47;;;17.81;nan
19845;BME280;10083;51.038;7.012;2023-08-08T22:09:46;123107.06;;;17.96;nan
19845;BME280;10083;51.038;7.012;2023-08-08T22:12:19;123733.34;;;17.95;nan
19845;BME280;10083;51.038;7.012;2023-08-08T22:15:00;124282.41;;;17.90;nan
19845;BME280;10083;51.038;7.012;2023-08-08T22:17:37;124877.69;;;17.88;nan
19845;BME280;10083;51.038;7.012;2023-08-08T22:20:11;125597.31;;;17.93;nan
19845;BME280;10083;51.038;7.012;2023-08-08T22:22:49;127146.53;;;17.75;nan
19845;BME280;10083;51.038;7.012;2023-08-08T22:25:19;127881.50;;;17.88;nan
19845;BME280;10083;51.038;7.012;2023-08-08T22:27:57;128459.31;;;17.75;nan
19845;BME280;10083;51.038;7.012;2023-08-08T22:30:42;128716.25;;;17.49;nan
19845;BME280;10083;51.038;7.012;2023-08-08T22:33:15;129864.78;;;17.94;nan
19845;BME280;10083;51.038;7.012;2023-08-08T22:36:04;130273.69;;;17.60;nan
19845;BME280;10083;51.038;7.012;2023-08-08T22:38:42;131304.19;;;17.83;nan
19845;BME280;10083;51.038;7.012;2023-08-08T22:41:19;131865.38;;;17.77;nan
19845;BME280;10083;51.038;7.012;2023-08-08T22:43:54;132562.19;;;17.72;nan
19845;BME280;10083;51.038;7.012;2023-08-08T22:46:58;133677.06;;;17.93;nan
19845;BME280;10083;51.038;7.012;2023-08-08T22:49:45;133866.75;;;17.67;nan
19845;BME280;10083;51.038;7.012;2023-08-08T22:52:23;134900.94;;;17.76;nan
19845;BME280;10083;51.038;7.012;2023-08-08T22:55:15;135789.28;;;17.93;nan
19845;BME280;10083;51.038;7.012;2023-08-08T22:58:04;136394.19;;;17.98;nan
19845;BME280;10083;51.038;7.012;2023-08-08T23:00:52;136583.56;;;17.92;nan
19845;BME280;10083;51.038;7.012;2023-08-08T23:03:40;136995.56;;;18.13;nan
19845;BME280;10083;51.038;7.012;2023-08-08T23:09:28;137133.63;;;18.02;nan
19845;BME280;10083;51.038;7.012;2023-08-08T23:12:28;137118.03;;;17.85;nan
19845;BME280;10083;51.038;7.012;2023-08-08T23:31:03;137740.41;;;17.80;nan
19845;BME280;10083;51.038;7.012;2023-08-08T23:34:31;138198.66;;;18.02;nan
19845;BME280;10083;51.038;7.012;2023-08-08T23:38:07;138132.22;;;18.01;nan
19845;BME280;10083;51.038;7.012;2023-08-08T23:41:23;138232.47;;;18.07;nan
19845;BME280;10083;51.038;7.012;2023-08-08T23:44:38;138076.44;;;18.16;nan
19845;BME280;10083;51.038;7.012;2023-08-08T23:47:45;137694.06;;;18.10;nan
19845;BME280;10083;51.038;7.012;2023-08-08T23:51:17;137683.63;;;18.13;nan
19845;BME280;10083;51.038;7.012;2023-08-08T23:55:35;137269.56;;;18.00;nan
